sensor_id;sensor_type;location;lat;lon;timestamp;pressure;altitude;pressure_sealevel;temperature;humidity
52291;BME280;39663;45.432;28.050;2023-03-14T00:00:13;101668.62;;;10.35;32.23
52291;BME280;39663;45.432;28.050;2023-03-14T00:00:45;101667.63;;;10.41;33.71
52291;BME280;39663;45.432;28.050;2023-03-14T00:01:18;101665.17;;;10.50;33.33
52291;BME280;39663;45.432;28.050;2023-03-14T00:01:50;101664.51;;;10.38;33.37
52291;BME280;39663;45.432;28.050;2023-03-14T00:02:21;101666.07;;;10.35;33.13
52291;BME280;39663;45.432;28.050;2023-03-14T00:02:53;101670.01;;;10.31;33.58
52291;BME280;39663;45.432;28.050;2023-03-14T00:03:25;101666.89;;;10.36;33.14
52291;BME280;39663;45.432;28.050;2023-03-14T00:03:56;101667.42;;;10.37;33.72
52291;BME280;39663;45.432;28.050;2023-03-14T00:04:28;101666.01;;;10.57;34.19
52291;BME280;39663;45.432;28.050;2023-03-14T00:04:59;101663.37;;;10.67;33.49
52291;BME280;39663;45.432;28.050;2023-03-14T00:05:31;101666.45;;;10.80;32.44
52291;BME280;39663;45.432;28.050;2023-03-14T00:06:02;101666.53;;;10.74;31.10
52291;BME280;39663;45.432;28.050;2023-03-14T00:06:35;101668.11;;;10.68;31.80
52291;BME280;39663;45.432;28.050;2023-03-14T00:07:06;101663.00;;;10.47;32.72
52291;BME280;39663;45.432;28.050;2023-03-14T00:07:39;101667.27;;;10.34;32.00
52291;BME280;39663;45.432;28.050;2023-03-14T00:08:10;101661.40;;;10.43;32.51
52291;BME280;39663;45.432;28.050;2023-03-14T00:08:43;101664.42;;;10.53;32.68
52291;BME280;39663;45.432;28.050;2023-03-14T00:09:15;101663.83;;;10.59;32.89
52291;BME280;39663;45.432;28.050;2023-03-14T00:09:47;101665.51;;;10.69;32.69
52291;BME280;39663;45.432;28.050;2023-03-14T00:10:18;101663.75;;;10.71;32.69
52291;BME280;39663;45.432;28.050;2023-03-14T00:10:50;101659.27;;;10.81;32.08
52291;BME280;39663;45.432;28.050;2023-03-14T00:11:22;101658.92;;;10.84;32.08
52291;BME280;39663;45.432;28.050;2023-03-14T00:11:54;101659.09;;;10.83;32.37
52291;BME280;39663;45.432;28.050;2023-03-14T00:12:25;101657.71;;;10.88;31.99
52291;BME280;39663;45.432;28.050;2023-03-14T00:12:57;101656.44;;;10.86;31.71
52291;BME280;39663;45.432;28.050;2023-03-14T00:13:28;101657.26;;;10.82;31.82
52291;BME280;39663;45.432;28.050;2023-03-14T00:13:59;101656.89;;;10.88;31.94
52291;BME280;39663;45.432;28.050;2023-03-14T00:14:31;101654.36;;;10.91;31.88
52291;BME280;39663;45.432;28.050;2023-03-14T00:15:03;101652.65;;;10.85;31.86
52291;BME280;39663;45.432;28.050;2023-03-14T00:15:35;101652.91;;;10.85;31.43
52291;BME280;39663;45.432;28.050;2023-03-14T00:16:09;101653.26;;;10.87;31.17
52291;BME280;39663;45.432;28.050;2023-03-14T00:16:41;101651.46;;;10.53;31.02
52291;BME280;39663;45.432;28.050;2023-03-14T00:17:13;101650.47;;;10.51;32.60
52291;BME280;39663;45.432;28.050;2023-03-14T00:17:44;101651.08;;;10.63;32.20
52291;BME280;39663;45.432;28.050;2023-03-14T00:18:16;101649.45;;;10.60;32.52
52291;BME280;39663;45.432;28.050;2023-03-14T00:18:48;101649.89;;;10.47;31.50
52291;BME280;39663;45.432;28.050;2023-03-14T00:19:19;101648.83;;;10.53;32.53
52291;BME280;39663;45.432;28.050;2023-03-14T00:19:51;101650.51;;;10.48;32.85
52291;BME280;39663;45.432;28.050;2023-03-14T00:20:22;101650.13;;;10.52;31.90
52291;BME280;39663;45.432;28.050;2023-03-14T00:20:53;101649.19;;;10.60;32.74
52291;BME280;39663;45.432;28.050;2023-03-14T00:21:25;101648.50;;;10.64;32.82
52291;BME280;39663;45.432;28.050;2023-03-14T00:21:56;101649.38;;;10.54;31.21
52291;BME280;39663;45.432;28.050;2023-03-14T00:22:28;101652.48;;;10.09;31.90
52291;BME280;39663;45.432;28.050;2023-03-14T00:22:59;101653.00;;;10.16;32.09
52291;BME280;39663;45.432;28.050;2023-03-14T00:23:32;101653.18;;;10.09;31.40
52291;BME280;39663;45.432;28.050;2023-03-14T00:24:05;101651.55;;;9.96;32.31
52291;BME280;39663;45.432;28.050;2023-03-14T00:24:36;101651.02;;;9.99;33.08
52291;BME280;39663;45.432;28.050;2023-03-14T00:25:09;101649.70;;;10.28;31.77
52291;BME280;39663;45.432;28.050;2023-03-14T00:25:41;101649.38;;;9.86;32.01
52291;BME280;39663;45.432;28.050;2023-03-14T00:26:15;101646.33;;;9.90;32.73
52291;BME280;39663;45.432;28.050;2023-03-14T00:26:47;101646.83;;;9.93;32.69
52291;BME280;39663;45.432;28.050;2023-03-14T00:27:18;101645.59;;;10.14;33.12
52291;BME280;39663;45.432;28.050;2023-03-14T00:27:51;101648.77;;;9.35;33.43
52291;BME280;39663;45.432;28.050;2023-03-14T00:28:22;101647.58;;;9.63;33.08
52291;BME280;39663;45.432;28.050;2023-03-14T00:28:54;101645.23;;;9.64;33.50
52291;BME280;39663;45.432;28.050;2023-03-14T00:29:26;101643.27;;;9.80;32.62
52291;BME280;39663;45.432;28.050;2023-03-14T00:29:57;101645.91;;;9.88;32.95
52291;BME280;39663;45.432;28.050;2023-03-14T00:30:29;101645.55;;;9.88;32.67
52291;BME280;39663;45.432;28.050;2023-03-14T00:31:03;101642.76;;;9.81;32.12
52291;BME280;39663;45.432;28.050;2023-03-14T00:31:34;101641.59;;;9.29;32.41
52291;BME280;39663;45.432;28.050;2023-03-14T00:32:06;101644.47;;;9.48;32.88
52291;BME280;39663;45.432;28.050;2023-03-14T00:32:37;101642.46;;;9.47;33.47
52291;BME280;39663;45.432;28.050;2023-03-14T00:33:09;101639.54;;;9.17;33.11
52291;BME280;39663;45.432;28.050;2023-03-14T00:33:40;101639.46;;;9.16;34.24
52291;BME280;39663;45.432;28.050;2023-03-14T00:34:11;101640.67;;;9.36;33.39
52291;BME280;39663;45.432;28.050;2023-03-14T00:34:43;101640.51;;;9.94;32.93
52291;BME280;39663;45.432;28.050;2023-03-14T00:35:15;101637.88;;;9.37;33.18
52291;BME280;39663;45.432;28.050;2023-03-14T00:35:53;101639.14;;;9.88;33.00
52291;BME280;39663;45.432;28.050;2023-03-14T00:36:25;101634.49;;;9.32;32.14
52291;BME280;39663;45.432;28.050;2023-03-14T00:36:56;101637.75;;;9.80;32.33
52291;BME280;39663;45.432;28.050;2023-03-14T00:37:28;101637.25;;;9.68;32.58
52291;BME280;39663;45.432;28.050;2023-03-14T00:37:59;101636.14;;;9.55;32.42
52291;BME280;39663;45.432;28.050;2023-03-14T00:38:32;101634.79;;;9.70;32.97
52291;BME280;39663;45.432;28.050;2023-03-14T00:39:04;101636.99;;;9.10;32.55
52291;BME280;39663;45.432;28.050;2023-03-14T00:39:35;101636.77;;;9.11;33.51
52291;BME280;39663;45.432;28.050;2023-03-14T00:40:09;101634.33;;;9.21;32.81
52291;BME280;39663;45.432;28.050;2023-03-14T00:40:40;101635.83;;;9.09;34.13
52291;BME280;39663;45.432;28.050;2023-03-14T00:41:13;101631.51;;;9.28;34.09
52291;BME280;39663;45.432;28.050;2023-03-14T00:41:45;101630.57;;;9.23;33.59
52291;BME280;39663;45.432;28.050;2023-03-14T00:42:16;101632.92;;;9.43;33.82
52291;BME280;39663;45.432;28.050;2023-03-14T00:42:48;101629.35;;;9.57;33.05
52291;BME280;39663;45.432;28.050;2023-03-14T00:43:20;101632.05;;;9.64;32.78
52291;BME280;39663;45.432;28.050;2023-03-14T00:43:52;101628.02;;;9.47;33.65
52291;BME280;39663;45.432;28.050;2023-03-14T00:44:23;101628.31;;;9.62;33.31
52291;BME280;39663;45.432;28.050;2023-03-14T00:44:55;101630.78;;;9.73;32.31
52291;BME280;39663;45.432;28.050;2023-03-14T00:45:26;101626.92;;;9.73;33.71
52291;BME280;39663;45.432;28.050;2023-03-14T00:45:58;101627.70;;;9.62;33.36
52291;BME280;39663;45.432;28.050;2023-03-14T00:46:29;101629.04;;;9.92;33.55
52291;BME280;39663;45.432;28.050;2023-03-14T00:47:01;101628.22;;;9.73;33.12
52291;BME280;39663;45.432;28.050;2023-03-14T00:47:32;101628.43;;;9.57;33.34
52291;BME280;39663;45.432;28.050;2023-03-14T00:48:04;101628.77;;;9.72;31.83
52291;BME280;39663;45.432;28.050;2023-03-14T00:48:36;101627.42;;;9.54;33.51
52291;BME280;39663;45.432;28.050;2023-03-14T00:49:07;101626.46;;;9.52;32.35
52291;BME280;39663;45.432;28.050;2023-03-14T00:49:39;101625.00;;;9.86;33.25
52291;BME280;39663;45.432;28.050;2023-03-14T00:50:11;101625.33;;;9.85;32.78
52291;BME280;39663;45.432;28.050;2023-03-14T00:50:42;101621.48;;;10.05;32.15
52291;BME280;39663;45.432;28.050;2023-03-14T00:51:14;101621.76;;;9.58;32.98
52291;BME280;39663;45.432;28.050;2023-03-14T00:51:45;101622.22;;;9.99;33.16
52291;BME280;39663;45.432;28.050;2023-03-14T00:52:17;101618.46;;;9.93;32.16
52291;BME280;39663;45.432;28.050;2023-03-14T00:52:48;101618.81;;;9.69;32.13
52291;BME280;39663;45.432;28.050;2023-03-14T00:53:20;101616.80;;;9.83;31.85
52291;BME280;39663;45.432;28.050;2023-03-14T00:53:51;101616.64;;;9.79;31.54
52291;BME280;39663;45.432;28.050;2023-03-14T00:54:23;101618.60;;;9.82;33.01
52291;BME280;39663;45.432;28.050;2023-03-14T00:54:55;101618.03;;;9.52;33.26
52291;BME280;39663;45.432;28.050;2023-03-14T00:55:26;101619.33;;;9.63;32.19
52291;BME280;39663;45.432;28.050;2023-03-14T00:56:02;101618.51;;;9.91;32.49
52291;BME280;39663;45.432;28.050;2023-03-14T00:56:34;101619.16;;;9.29;31.61
52291;BME280;39663;45.432;28.050;2023-03-14T00:57:05;101617.91;;;9.60;32.93
52291;BME280;39663;45.432;28.050;2023-03-14T00:57:36;101615.59;;;9.20;32.95
52291;BME280;39663;45.432;28.050;2023-03-14T00:58:08;101614.63;;;9.55;32.54
52291;BME280;39663;45.432;28.050;2023-03-14T00:58:40;101614.35;;;9.72;33.20
52291;BME280;39663;45.432;28.050;2023-03-14T00:59:11;101612.10;;;9.72;33.33
52291;BME280;39663;45.432;28.050;2023-03-14T00:59:43;101613.42;;;9.50;32.34
52291;BME280;39663;45.432;28.050;2023-03-14T01:00:15;101610.99;;;10.03;33.30
52291;BME280;39663;45.432;28.050;2023-03-14T01:00:46;101613.20;;;9.99;32.53
52291;BME280;39663;45.432;28.050;2023-03-14T01:01:18;101610.33;;;9.96;33.17
52291;BME280;39663;45.432;28.050;2023-03-14T01:01:50;101609.14;;;9.95;32.90
52291;BME280;39663;45.432;28.050;2023-03-14T01:02:21;101610.79;;;9.92;32.86
52291;BME280;39663;45.432;28.050;2023-03-14T01:02:52;101606.45;;;9.68;32.48
52291;BME280;39663;45.432;28.050;2023-03-14T01:03:24;101607.99;;;9.83;32.33
52291;BME280;39663;45.432;28.050;2023-03-14T01:03:56;101609.55;;;10.03;32.59
52291;BME280;39663;45.432;28.050;2023-03-14T01:04:27;101608.02;;;9.76;32.68
52291;BME280;39663;45.432;28.050;2023-03-14T01:04:59;101608.09;;;10.23;31.66
52291;BME280;39663;45.432;28.050;2023-03-14T01:05:30;101607.58;;;9.88;32.29
52291;BME280;39663;45.432;28.050;2023-03-14T01:06:11;101609.17;;;9.88;32.15
52291;BME280;39663;45.432;28.050;2023-03-14T01:06:43;101611.27;;;9.57;32.74
52291;BME280;39663;45.432;28.050;2023-03-14T01:07:15;101609.92;;;9.50;32.09
52291;BME280;39663;45.432;28.050;2023-03-14T01:07:46;101610.33;;;9.37;31.73
52291;BME280;39663;45.432;28.050;2023-03-14T01:08:18;101608.95;;;9.45;32.32
52291;BME280;39663;45.432;28.050;2023-03-14T01:08:50;101609.21;;;9.30;32.29
52291;BME280;39663;45.432;28.050;2023-03-14T01:09:22;101610.92;;;9.49;32.03
52291;BME280;39663;45.432;28.050;2023-03-14T01:09:53;101610.77;;;9.47;33.38
52291;BME280;39663;45.432;28.050;2023-03-14T01:10:25;101609.54;;;9.39;32.50
52291;BME280;39663;45.432;28.050;2023-03-14T01:10:56;101607.32;;;9.96;32.62
52291;BME280;39663;45.432;28.050;2023-03-14T01:11:30;101611.62;;;9.89;33.00
52291;BME280;39663;45.432;28.050;2023-03-14T01:12:02;101609.24;;;9.43;31.95
52291;BME280;39663;45.432;28.050;2023-03-14T01:12:34;101614.40;;;9.48;32.18
52291;BME280;39663;45.432;28.050;2023-03-14T01:13:05;101609.59;;;9.96;32.82
52291;BME280;39663;45.432;28.050;2023-03-14T01:13:37;101608.09;;;9.69;31.84
52291;BME280;39663;45.432;28.050;2023-03-14T01:14:10;101607.97;;;9.48;32.87
52291;BME280;39663;45.432;28.050;2023-03-14T01:14:42;101605.26;;;9.57;33.32
52291;BME280;39663;45.432;28.050;2023-03-14T01:15:13;101608.72;;;9.72;32.68
52291;BME280;39663;45.432;28.050;2023-03-14T01:15:45;101607.84;;;9.61;31.79
52291;BME280;39663;45.432;28.050;2023-03-14T01:16:17;101604.68;;;9.73;33.32
52291;BME280;39663;45.432;28.050;2023-03-14T01:16:49;101605.99;;;9.57;33.23
52291;BME280;39663;45.432;28.050;2023-03-14T01:17:20;101606.80;;;9.72;32.64
52291;BME280;39663;45.432;28.050;2023-03-14T01:17:52;101607.21;;;9.33;32.93
52291;BME280;39663;45.432;28.050;2023-03-14T01:18:23;101605.24;;;9.26;32.58
52291;BME280;39663;45.432;28.050;2023-03-14T01:18:55;101607.19;;;9.36;31.99
52291;BME280;39663;45.432;28.050;2023-03-14T01:19:27;101607.17;;;9.19;32.51
52291;BME280;39663;45.432;28.050;2023-03-14T01:20:00;101607.59;;;9.20;32.57
52291;BME280;39663;45.432;28.050;2023-03-14T01:20:31;101604.24;;;9.30;33.38
52291;BME280;39663;45.432;28.050;2023-03-14T01:21:11;101601.44;;;9.32;32.31
52291;BME280;39663;45.432;28.050;2023-03-14T01:21:43;101605.34;;;9.49;32.50
52291;BME280;39663;45.432;28.050;2023-03-14T01:22:14;101600.55;;;9.22;32.10
52291;BME280;39663;45.432;28.050;2023-03-14T01:22:47;101602.23;;;9.12;32.98
52291;BME280;39663;45.432;28.050;2023-03-14T01:23:19;101602.89;;;8.97;32.58
52291;BME280;39663;45.432;28.050;2023-03-14T01:23:52;101601.69;;;8.48;33.86
52291;BME280;39663;45.432;28.050;2023-03-14T01:24:24;101600.79;;;9.15;32.35
52291;BME280;39663;45.432;28.050;2023-03-14T01:24:56;101603.61;;;9.37;32.98
52291;BME280;39663;45.432;28.050;2023-03-14T01:25:27;101597.51;;;9.67;32.91
52291;BME280;39663;45.432;28.050;2023-03-14T01:25:58;101605.33;;;9.64;32.93
52291;BME280;39663;45.432;28.050;2023-03-14T01:26:32;101599.98;;;9.60;32.10
52291;BME280;39663;45.432;28.050;2023-03-14T01:27:04;101601.88;;;9.36;33.03
52291;BME280;39663;45.432;28.050;2023-03-14T01:27:36;101599.24;;;9.39;33.07
52291;BME280;39663;45.432;28.050;2023-03-14T01:28:07;101601.15;;;9.49;32.55
52291;BME280;39663;45.432;28.050;2023-03-14T01:28:39;101603.35;;;9.71;33.11
52291;BME280;39663;45.432;28.050;2023-03-14T01:29:11;101604.08;;;9.76;32.37
52291;BME280;39663;45.432;28.050;2023-03-14T01:29:42;101603.58;;;9.72;33.04
52291;BME280;39663;45.432;28.050;2023-03-14T01:30:14;101602.60;;;9.46;33.41
52291;BME280;39663;45.432;28.050;2023-03-14T01:30:45;101608.58;;;9.74;33.26
52291;BME280;39663;45.432;28.050;2023-03-14T01:31:17;101603.99;;;9.73;32.89
52291;BME280;39663;45.432;28.050;2023-03-14T01:31:49;101604.63;;;9.39;32.79
52291;BME280;39663;45.432;28.050;2023-03-14T01:32:20;101603.18;;;9.10;33.05
52291;BME280;39663;45.432;28.050;2023-03-14T01:32:52;101602.87;;;9.29;33.39
52291;BME280;39663;45.432;28.050;2023-03-14T01:33:23;101608.39;;;9.61;32.84
52291;BME280;39663;45.432;28.050;2023-03-14T01:33:55;101604.10;;;9.42;33.05
52291;BME280;39663;45.432;28.050;2023-03-14T01:34:26;101605.89;;;9.54;33.27
52291;BME280;39663;45.432;28.050;2023-03-14T01:34:58;101603.08;;;9.56;33.92
52291;BME280;39663;45.432;28.050;2023-03-14T01:35:29;101604.55;;;9.50;33.53
52291;BME280;39663;45.432;28.050;2023-03-14T01:36:01;101601.10;;;9.85;33.18
52291;BME280;39663;45.432;28.050;2023-03-14T01:36:32;101607.90;;;9.17;32.96
52291;BME280;39663;45.432;28.050;2023-03-14T01:37:04;101602.78;;;9.31;33.51
52291;BME280;39663;45.432;28.050;2023-03-14T01:37:35;101601.96;;;9.42;33.56
52291;BME280;39663;45.432;28.050;2023-03-14T01:38:07;101598.38;;;9.58;33.75
52291;BME280;39663;45.432;28.050;2023-03-14T01:38:39;101599.10;;;9.63;33.91
52291;BME280;39663;45.432;28.050;2023-03-14T01:39:11;101593.63;;;9.76;33.55
52291;BME280;39663;45.432;28.050;2023-03-14T01:39:43;101598.38;;;9.88;33.10
52291;BME280;39663;45.432;28.050;2023-03-14T01:40:14;101599.43;;;9.95;33.55
52291;BME280;39663;45.432;28.050;2023-03-14T01:40:46;101601.09;;;9.96;33.26
52291;BME280;39663;45.432;28.050;2023-03-14T01:41:19;101601.75;;;9.59;33.38
52291;BME280;39663;45.432;28.050;2023-03-14T01:41:51;101600.50;;;9.34;34.04
52291;BME280;39663;45.432;28.050;2023-03-14T01:42:22;101596.22;;;9.90;33.81
52291;BME280;39663;45.432;28.050;2023-03-14T01:42:56;101599.33;;;9.72;33.61
52291;BME280;39663;45.432;28.050;2023-03-14T01:43:27;101600.22;;;9.68;33.44
52291;BME280;39663;45.432;28.050;2023-03-14T01:43:59;101599.95;;;9.43;33.86
52291;BME280;39663;45.432;28.050;2023-03-14T01:44:47;101598.69;;;9.58;34.21
52291;BME280;39663;45.432;28.050;2023-03-14T01:46:14;101595.11;;;9.64;33.84
52291;BME280;39663;45.432;28.050;2023-03-14T01:46:48;101593.65;;;9.20;33.39
52291;BME280;39663;45.432;28.050;2023-03-14T01:47:21;101594.79;;;9.09;34.58
52291;BME280;39663;45.432;28.050;2023-03-14T01:47:52;101594.42;;;9.42;34.11
52291;BME280;39663;45.432;28.050;2023-03-14T01:48:24;101593.09;;;9.62;33.85
52291;BME280;39663;45.432;28.050;2023-03-14T01:49:00;101591.09;;;9.45;33.99
52291;BME280;39663;45.432;28.050;2023-03-14T01:49:34;101588.57;;;9.59;33.92
52291;BME280;39663;45.432;28.050;2023-03-14T01:50:09;101591.49;;;9.26;34.11
52291;BME280;39663;45.432;28.050;2023-03-14T01:50:43;101588.31;;;9.34;34.30
52291;BME280;39663;45.432;28.050;2023-03-14T01:51:17;101592.02;;;9.35;34.28
52291;BME280;39663;45.432;28.050;2023-03-14T01:51:55;101592.18;;;9.53;34.20
52291;BME280;39663;45.432;28.050;2023-03-14T01:52:30;101589.11;;;9.59;34.46
52291;BME280;39663;45.432;28.050;2023-03-14T01:53:03;101589.78;;;9.65;34.20
52291;BME280;39663;45.432;28.050;2023-03-14T01:53:35;101593.14;;;9.81;33.99
52291;BME280;39663;45.432;28.050;2023-03-14T01:54:15;101593.31;;;9.56;33.28
52291;BME280;39663;45.432;28.050;2023-03-14T01:54:50;101591.59;;;9.62;34.03
52291;BME280;39663;45.432;28.050;2023-03-14T01:55:25;101595.77;;;9.17;34.07
52291;BME280;39663;45.432;28.050;2023-03-14T01:55:57;101590.81;;;9.58;33.71
52291;BME280;39663;45.432;28.050;2023-03-14T01:56:29;101593.34;;;9.76;33.77
52291;BME280;39663;45.432;28.050;2023-03-14T01:57:05;101591.94;;;9.69;34.30
52291;BME280;39663;45.432;28.050;2023-03-14T01:57:40;101592.40;;;9.56;33.64
52291;BME280;39663;45.432;28.050;2023-03-14T01:58:12;101598.49;;;9.70;33.91
52291;BME280;39663;45.432;28.050;2023-03-14T01:58:46;101592.73;;;9.26;34.30
52291;BME280;39663;45.432;28.050;2023-03-14T01:59:19;101590.99;;;9.09;34.15
52291;BME280;39663;45.432;28.050;2023-03-14T01:59:54;101593.76;;;9.60;33.97
52291;BME280;39663;45.432;28.050;2023-03-14T02:00:27;101599.38;;;9.62;34.15
52291;BME280;39663;45.432;28.050;2023-03-14T02:00:59;101596.27;;;9.26;34.05
52291;BME280;39663;45.432;28.050;2023-03-14T02:01:30;101601.62;;;9.24;33.64
52291;BME280;39663;45.432;28.050;2023-03-14T02:02:02;101602.21;;;9.61;33.54
52291;BME280;39663;45.432;28.050;2023-03-14T02:02:35;101599.68;;;9.65;34.12
52291;BME280;39663;45.432;28.050;2023-03-14T02:03:11;101601.69;;;9.58;33.93
52291;BME280;39663;45.432;28.050;2023-03-14T02:03:49;101604.02;;;8.97;34.33
52291;BME280;39663;45.432;28.050;2023-03-14T02:04:22;101604.47;;;9.25;34.48
52291;BME280;39663;45.432;28.050;2023-03-14T02:04:55;101601.09;;;9.58;34.26
52291;BME280;39663;45.432;28.050;2023-03-14T02:05:30;101604.14;;;9.33;34.09
52291;BME280;39663;45.432;28.050;2023-03-14T02:06:06;101605.59;;;9.33;34.63
52291;BME280;39663;45.432;28.050;2023-03-14T02:06:47;101606.02;;;9.43;34.66
52291;BME280;39663;45.432;28.050;2023-03-14T02:07:24;101602.36;;;9.46;34.33
52291;BME280;39663;45.432;28.050;2023-03-14T02:08:00;101605.35;;;8.95;34.22
52291;BME280;39663;45.432;28.050;2023-03-14T02:08:31;101605.81;;;9.42;34.40
52291;BME280;39663;45.432;28.050;2023-03-14T02:09:04;101606.05;;;9.38;34.46
52291;BME280;39663;45.432;28.050;2023-03-14T02:09:36;101605.33;;;9.44;34.71
52291;BME280;39663;45.432;28.050;2023-03-14T02:10:10;101603.06;;;9.38;34.52
52291;BME280;39663;45.432;28.050;2023-03-14T02:10:43;101603.25;;;9.14;34.43
52291;BME280;39663;45.432;28.050;2023-03-14T02:11:15;101604.48;;;8.97;33.94
52291;BME280;39663;45.432;28.050;2023-03-14T02:11:48;101605.80;;;9.52;34.53
52291;BME280;39663;45.432;28.050;2023-03-14T02:12:20;101603.48;;;9.69;34.08
52291;BME280;39663;45.432;28.050;2023-03-14T02:12:54;101604.04;;;9.54;34.00
52291;BME280;39663;45.432;28.050;2023-03-14T02:13:27;101604.12;;;9.43;34.11
52291;BME280;39663;45.432;28.050;2023-03-14T02:13:59;101605.98;;;9.77;34.50
52291;BME280;39663;45.432;28.050;2023-03-14T02:14:34;101603.57;;;9.42;34.48
52291;BME280;39663;45.432;28.050;2023-03-14T02:15:07;101605.93;;;9.37;34.22
52291;BME280;39663;45.432;28.050;2023-03-14T02:15:39;101605.75;;;9.42;35.04
52291;BME280;39663;45.432;28.050;2023-03-14T02:16:11;101605.01;;;9.16;35.24
52291;BME280;39663;45.432;28.050;2023-03-14T02:16:42;101606.06;;;9.36;35.01
52291;BME280;39663;45.432;28.050;2023-03-14T02:17:15;101603.87;;;9.23;35.57
52291;BME280;39663;45.432;28.050;2023-03-14T02:17:47;101600.36;;;9.62;35.07
52291;BME280;39663;45.432;28.050;2023-03-14T02:18:19;101603.70;;;9.72;34.88
52291;BME280;39663;45.432;28.050;2023-03-14T02:18:51;101602.80;;;9.62;34.78
52291;BME280;39663;45.432;28.050;2023-03-14T02:19:31;101603.66;;;9.76;34.68
52291;BME280;39663;45.432;28.050;2023-03-14T02:20:19;101601.29;;;9.64;34.74
52291;BME280;39663;45.432;28.050;2023-03-14T02:20:59;101601.28;;;9.69;34.19
52291;BME280;39663;45.432;28.050;2023-03-14T02:21:42;101601.92;;;9.37;34.70
52291;BME280;39663;45.432;28.050;2023-03-14T02:22:16;101601.18;;;9.34;35.05
52291;BME280;39663;45.432;28.050;2023-03-14T02:22:48;101601.40;;;9.67;34.37
52291;BME280;39663;45.432;28.050;2023-03-14T02:23:29;101601.97;;;9.29;33.71
52291;BME280;39663;45.432;28.050;2023-03-14T02:24:07;101600.62;;;9.51;34.52
52291;BME280;39663;45.432;28.050;2023-03-14T02:24:46;101603.60;;;9.69;34.45
52291;BME280;39663;45.432;28.050;2023-03-14T02:25:27;101601.74;;;9.67;35.74
52291;BME280;39663;45.432;28.050;2023-03-14T02:26:08;101599.83;;;9.85;34.05
52291;BME280;39663;45.432;28.050;2023-03-14T02:27:00;101601.58;;;9.69;33.90
52291;BME280;39663;45.432;28.050;2023-03-14T02:27:33;101603.35;;;9.67;35.67
52291;BME280;39663;45.432;28.050;2023-03-14T02:28:05;101602.78;;;9.60;35.44
52291;BME280;39663;45.432;28.050;2023-03-14T02:28:36;101603.97;;;9.81;35.25
52291;BME280;39663;45.432;28.050;2023-03-14T02:29:08;101602.33;;;9.80;35.69
52291;BME280;39663;45.432;28.050;2023-03-14T02:29:45;101605.37;;;10.00;34.98
52291;BME280;39663;45.432;28.050;2023-03-14T02:30:20;101605.65;;;9.85;35.25
52291;BME280;39663;45.432;28.050;2023-03-14T02:30:52;101604.23;;;10.01;34.98
52291;BME280;39663;45.432;28.050;2023-03-14T02:31:24;101602.55;;;10.24;34.88
52291;BME280;39663;45.432;28.050;2023-03-14T02:31:55;101598.16;;;10.28;34.46
52291;BME280;39663;45.432;28.050;2023-03-14T02:32:29;101599.58;;;10.28;33.54
52291;BME280;39663;45.432;28.050;2023-03-14T02:33:04;101599.03;;;10.18;33.72
52291;BME280;39663;45.432;28.050;2023-03-14T02:33:37;101600.34;;;10.16;34.58
52291;BME280;39663;45.432;28.050;2023-03-14T02:34:09;101601.28;;;9.98;33.49
52291;BME280;39663;45.432;28.050;2023-03-14T02:34:42;101600.54;;;10.08;33.98
52291;BME280;39663;45.432;28.050;2023-03-14T02:35:18;101602.69;;;10.13;34.21
52291;BME280;39663;45.432;28.050;2023-03-14T02:35:53;101602.99;;;9.90;33.85
52291;BME280;39663;45.432;28.050;2023-03-14T02:36:27;101602.02;;;9.50;34.35
52291;BME280;39663;45.432;28.050;2023-03-14T02:36:59;101601.58;;;9.42;34.77
52291;BME280;39663;45.432;28.050;2023-03-14T02:37:35;101604.11;;;9.59;34.68
52291;BME280;39663;45.432;28.050;2023-03-14T02:38:15;101603.28;;;10.02;34.06
52291;BME280;39663;45.432;28.050;2023-03-14T02:38:53;101607.00;;;9.71;34.14
52291;BME280;39663;45.432;28.050;2023-03-14T02:39:31;101604.44;;;9.90;34.20
52291;BME280;39663;45.432;28.050;2023-03-14T02:40:07;101602.46;;;9.93;34.13
52291;BME280;39663;45.432;28.050;2023-03-14T02:40:39;101605.14;;;9.99;33.43
52291;BME280;39663;45.432;28.050;2023-03-14T02:41:10;101606.96;;;8.93;34.39
52291;BME280;39663;45.432;28.050;2023-03-14T02:41:42;101605.09;;;8.86;34.63
52291;BME280;39663;45.432;28.050;2023-03-14T02:42:14;101605.67;;;9.31;35.35
52291;BME280;39663;45.432;28.050;2023-03-14T02:42:45;101600.87;;;9.46;34.50
52291;BME280;39663;45.432;28.050;2023-03-14T02:43:17;101602.88;;;9.25;35.04
52291;BME280;39663;45.432;28.050;2023-03-14T02:43:48;101602.71;;;9.28;34.91
52291;BME280;39663;45.432;28.050;2023-03-14T02:44:20;101600.39;;;9.50;34.47
52291;BME280;39663;45.432;28.050;2023-03-14T02:44:53;101599.69;;;9.36;35.01
52291;BME280;39663;45.432;28.050;2023-03-14T02:45:36;101599.31;;;9.21;35.07
52291;BME280;39663;45.432;28.050;2023-03-14T02:46:11;101601.39;;;9.36;35.45
52291;BME280;39663;45.432;28.050;2023-03-14T02:46:43;101600.94;;;9.15;34.14
52291;BME280;39663;45.432;28.050;2023-03-14T02:47:15;101602.24;;;9.46;34.69
52291;BME280;39663;45.432;28.050;2023-03-14T02:47:51;101598.77;;;9.16;34.20
52291;BME280;39663;45.432;28.050;2023-03-14T02:48:26;101601.14;;;9.16;35.09
52291;BME280;39663;45.432;28.050;2023-03-14T02:49:03;101598.02;;;9.25;35.17
52291;BME280;39663;45.432;28.050;2023-03-14T02:49:35;101602.05;;;9.18;34.88
52291;BME280;39663;45.432;28.050;2023-03-14T02:50:09;101604.64;;;9.17;34.49
52291;BME280;39663;45.432;28.050;2023-03-14T02:50:41;101603.20;;;9.04;34.46
52291;BME280;39663;45.432;28.050;2023-03-14T02:51:14;101603.58;;;8.75;34.67
52291;BME280;39663;45.432;28.050;2023-03-14T02:51:46;101602.51;;;8.35;35.82
52291;BME280;39663;45.432;28.050;2023-03-14T02:52:17;101604.10;;;8.65;36.02